createdAt,value
2022-08-26T00:00:00.255Z,99818.44
2022-08-26T00:01:03.355Z,99825.71
2022-08-26T00:02:05.974Z,99821.14
2022-08-26T00:03:08.503Z,99824.69
2022-08-26T00:04:12.148Z,99816.88
2022-08-26T00:05:14.828Z,99822.44
2022-08-26T00:06:20.859Z,99826.30
2022-08-26T00:07:23.795Z,99822.91
2022-08-26T00:08:26.424Z,99817.50
2022-08-26T00:09:28.783Z,99826.45
2022-08-26T00:10:32.215Z,99820.05
2022-08-26T00:11:34.979Z,99826.30
2022-08-26T00:12:38.127Z,99823.59
2022-08-26T00:13:40.532Z,99821.76
2022-08-26T00:14:44.904Z,99821.76
2022-08-26T00:15:48.710Z,99822.03
2022-08-26T00:16:51.496Z,99821.34
2022-08-26T00:17:53.903Z,99819.48
2022-08-26T00:18:56.474Z,99820.34
2022-08-26T00:19:59.143Z,99812.23
2022-08-26T00:21:06.045Z,99822.34
2022-08-26T00:22:07.043Z,99819.63
2022-08-26T00:23:09.549Z,99816.92
2022-08-26T00:24:12.947Z,99810.84
2022-08-26T00:25:33.701Z,99814.53
2022-08-26T00:26:37.055Z,99815.52
2022-08-26T00:27:39.379Z,99819.09
2022-08-26T00:28:42.188Z,99807.41
2022-08-26T00:29:45.098Z,99809.42
2022-08-26T00:30:47.494Z,99808.55
2022-08-26T00:31:51.740Z,99812.28
2022-08-26T00:32:54.207Z,99808.70
2022-08-26T00:33:57.117Z,99803.42
2022-08-26T00:34:59.426Z,99814.98
2022-08-26T00:36:03.521Z,99808.70
2022-08-26T00:37:09.407Z,99804.30
2022-08-26T00:38:12.006Z,99809.82
2022-08-26T00:39:17.383Z,99808.14
2022-08-26T00:40:28.951Z,99811.84
2022-08-26T00:41:32.100Z,99806.58
2022-08-26T00:42:35.404Z,99807.42
2022-08-26T00:43:47.190Z,99802.89
2022-08-26T00:44:45.028Z,99808.98
2022-08-26T00:46:10.553Z,99809.13
2022-08-26T00:48:36.058Z,99801.31
2022-08-26T00:49:41.548Z,99805.17
2022-08-26T00:50:48.009Z,99807.16
2022-08-26T00:51:52.531Z,99804.61
2022-08-26T00:52:55.932Z,99800.22
2022-08-26T00:54:02.218Z,99802.92
2022-08-26T00:55:27.559Z,99800.22
2022-08-26T00:57:50.738Z,99799.01
2022-08-26T00:59:07.225Z,99798.20
2022-08-26T01:00:14.189Z,99797.37
2022-08-26T01:01:16.581Z,99799.05
2022-08-26T01:02:21.365Z,99791.96
2022-08-26T01:03:24.393Z,99791.96
2022-08-26T01:04:26.561Z,99798.05
2022-08-26T01:05:28.924Z,99799.05
2022-08-26T01:06:34.012Z,99792.65
2022-08-26T01:07:36.498Z,99794.52
2022-08-26T01:08:38.879Z,99791.81
2022-08-26T01:09:41.700Z,99792.80
2022-08-26T01:10:45.266Z,99791.96
2022-08-26T01:11:48.418Z,99798.36
2022-08-26T01:14:07.038Z,99785.80
2022-08-26T01:15:47.260Z,99793.11
2022-08-26T01:16:53.050Z,99792.12
2022-08-26T01:18:00.481Z,99796.50
2022-08-26T01:21:01.882Z,99797.48
2022-08-26T01:23:22.596Z,99787.81
2022-08-26T01:25:56.130Z,99786.30
2022-08-26T01:27:02.326Z,99786.14
2022-08-26T01:28:07.231Z,99791.55
2022-08-26T01:29:12.745Z,99792.54
2022-08-26T01:30:17.733Z,99787.13
2022-08-26T01:31:22.825Z,99790.70
2022-08-26T01:32:25.360Z,99786.14
2022-08-26T01:33:31.197Z,99783.44
2022-08-26T01:34:36.310Z,99788.69
2022-08-26T01:35:39.148Z,99785.15
2022-08-26T01:36:42.621Z,99786.98
2022-08-26T01:37:47.309Z,99787.13
2022-08-26T01:38:49.519Z,99783.59
2022-08-26T01:39:54.022Z,99785.30
2022-08-26T01:40:56.741Z,99786.14
2022-08-26T01:42:03.147Z,99785.98
2022-08-26T01:43:06.639Z,99787.85
2022-08-26T01:44:40.164Z,99786.83
2022-08-26T01:45:42.867Z,99784.00
2022-08-26T01:46:48.334Z,99784.00
2022-08-26T01:47:57.151Z,99785.84
2022-08-26T01:48:59.297Z,99777.73
2022-08-26T01:50:06.256Z,99778.59
2022-08-26T01:51:08.890Z,99775.90
2022-08-26T01:52:12.029Z,99776.73
2022-08-26T01:53:17.449Z,99779.44
2022-08-26T01:54:20.575Z,99772.17
2022-08-26T01:55:32.458Z,99782.14
2022-08-26T01:56:33.473Z,99785.69
2022-08-26T01:57:36.072Z,99772.32
2022-08-26T02:00:06.213Z,99769.73
2022-08-26T02:01:10.562Z,99778.88
2022-08-26T02:02:14.394Z,99774.48
2022-08-26T02:03:18.097Z,99778.19
2022-08-26T02:04:35.552Z,99770.08
2022-08-26T02:05:37.977Z,99778.34
2022-08-26T02:06:41.043Z,99756.60
2022-08-26T02:07:43.586Z,99756.60
2022-08-26T02:08:51.580Z,99774.08
2022-08-26T02:09:54.087Z,99776.93
2022-08-26T02:10:56.432Z,99774.38
2022-08-26T02:12:00.254Z,99772.66
2022-08-26T02:13:03.976Z,99771.67
2022-08-26T02:14:24.031Z,99773.51
2022-08-26T02:15:28.115Z,99770.27
2022-08-26T02:16:42.242Z,99768.70
2022-08-26T02:17:44.970Z,99773.13
2022-08-26T02:18:47.293Z,99771.41
2022-08-26T02:19:49.753Z,99770.42
2022-08-26T02:20:52.970Z,99772.97
2022-08-26T02:21:56.530Z,99772.09
2022-08-26T02:22:58.925Z,99771.95
2022-08-26T02:24:11.617Z,99766.42
2022-08-26T02:26:29.049Z,99772.47
2022-08-26T02:27:34.945Z,99773.51
2022-08-26T02:28:41.542Z,99771.83
2022-08-26T02:29:46.840Z,99766.54
2022-08-26T02:30:51.230Z,99777.34
2022-08-26T02:31:53.510Z,99775.67
2022-08-26T02:32:58.495Z,99781.08
2022-08-26T02:35:24.399Z,99775.48
2022-08-26T02:36:28.553Z,99767.56
2022-08-26T02:37:31.277Z,99779.36
2022-08-26T02:38:34.154Z,99776.81
2022-08-26T02:39:37.283Z,99772.25
2022-08-26T02:40:40.866Z,99776.81
2022-08-26T02:41:45.243Z,99775.10
2022-08-26T02:42:48.024Z,99772.55
2022-08-26T02:43:50.381Z,99764.59
2022-08-26T02:44:52.534Z,99777.27
2022-08-26T02:45:55.135Z,99779.25
2022-08-26T02:46:57.791Z,99778.41
2022-08-26T02:48:04.612Z,99783.96
2022-08-26T02:49:06.912Z,99786.78
2022-08-26T02:50:09.958Z,99784.23
2022-08-26T02:51:12.316Z,99781.53
2022-08-26T02:52:15.717Z,99781.53
2022-08-26T02:53:23.183Z,99779.70
2022-08-26T02:54:22.159Z,99779.70
2022-08-26T02:55:25.079Z,99776.12
2022-08-26T02:56:28.483Z,99778.83
2022-08-26T02:57:30.621Z,99783.39
2022-08-26T02:58:33.418Z,99781.53
2022-08-26T02:59:36.708Z,99775.97
2022-08-26T03:00:53.163Z,99782.25
2022-08-26T03:01:44.879Z,99783.09
2022-08-26T03:02:47.220Z,99779.70
2022-08-26T03:03:52.439Z,99779.84
2022-08-26T03:04:57.927Z,99782.55
2022-08-26T03:05:59.590Z,99786.09
2022-08-26T03:07:01.957Z,99784.38
2022-08-26T03:08:04.229Z,99784.38
2022-08-26T03:09:06.762Z,99787.23
2022-08-26T03:10:11.764Z,99789.09
2022-08-26T03:11:14.100Z,99783.69
2022-08-26T03:12:17.405Z,99795.34
2022-08-26T03:13:21.324Z,99790.08
2022-08-26T03:14:23.987Z,99788.37
2022-08-26T03:15:26.404Z,99791.38
2022-08-26T03:16:35.854Z,99791.52
2022-08-26T03:17:38.389Z,99797.91
2022-08-26T03:18:41.992Z,99793.65
2022-08-26T03:19:44.349Z,99792.80
2022-08-26T03:20:46.929Z,99788.39
2022-08-26T03:21:49.355Z,99799.05
2022-08-26T03:22:51.506Z,99793.65
2022-08-26T03:23:53.752Z,99789.95
2022-08-26T03:24:55.905Z,99799.77
2022-08-26T03:26:00.270Z,99793.38
2022-08-26T03:27:05.923Z,99794.38
2022-08-26T03:28:07.760Z,99796.20
2022-08-26T03:29:11.750Z,99800.77
2022-08-26T03:30:14.885Z,99798.20
2022-08-26T03:31:17.310Z,99799.05
2022-08-26T03:32:19.553Z,99807.16
2022-08-26T03:33:21.812Z,99809.70
2022-08-26T03:34:24.076Z,99800.61
2022-08-26T03:35:28.645Z,99808.57
2022-08-26T03:36:32.377Z,99804.88
2022-08-26T03:37:36.974Z,99806.73
2022-08-26T03:38:41.182Z,99806.16
2022-08-26T03:39:43.432Z,99803.61
2022-08-26T03:40:46.437Z,99804.45
2022-08-26T03:41:49.915Z,99801.60
2022-08-26T03:42:53.549Z,99803.31
2022-08-26T03:44:00.985Z,99799.62
2022-08-26T03:45:00.422Z,99805.02
2022-08-26T03:46:07.022Z,99805.87
2022-08-26T03:47:09.420Z,99806.73
2022-08-26T03:48:11.854Z,99803.02
2022-08-26T03:49:14.306Z,99811.00
2022-08-26T03:50:22.971Z,99810.86
2022-08-26T03:51:24.262Z,99812.53
2022-08-26T03:52:27.774Z,99808.84
2022-08-26T03:53:31.293Z,99801.58
2022-08-26T03:54:33.744Z,99806.14
2022-08-26T03:55:35.899Z,99816.11
2022-08-26T03:56:40.125Z,99805.30
2022-08-26T03:57:42.677Z,99800.73
2022-08-26T03:58:45.954Z,99812.39
2022-08-26T03:59:48.275Z,99803.44
2022-08-26T04:00:51.388Z,99804.16
2022-08-26T04:01:55.450Z,99796.63
2022-08-26T04:02:58.403Z,99796.63
2022-08-26T04:04:01.273Z,99801.46
2022-08-26T04:05:04.446Z,99811.25
2022-08-26T04:06:07.226Z,99804.02
2022-08-26T04:07:09.375Z,99804.85
2022-08-26T04:08:11.631Z,99802.87
2022-08-26T04:09:17.528Z,99800.17
2022-08-26T04:10:20.981Z,99803.72
2022-08-26T04:11:25.679Z,99805.42
2022-08-26T04:12:29.148Z,99799.00
2022-08-26T04:13:32.959Z,99795.61
2022-08-26T04:14:35.288Z,99802.87
2022-08-26T04:15:39.655Z,99808.13
2022-08-26T04:16:42.631Z,99803.56
2022-08-26T04:17:45.786Z,99797.32
2022-08-26T04:18:50.238Z,99791.91
2022-08-26T04:19:53.331Z,99796.30
2022-08-26T04:20:56.923Z,99797.32
2022-08-26T04:21:59.252Z,99789.22
2022-08-26T04:23:03.591Z,99789.22
2022-08-26T04:24:12.057Z,99786.52
2022-08-26T04:25:13.239Z,99784.80
2022-08-26T04:26:17.729Z,99784.80
2022-08-26T04:27:20.261Z,99784.80
2022-08-26T04:28:22.971Z,99782.09
2022-08-26T04:29:25.838Z,99782.09
2022-08-26T04:30:28.706Z,99781.26
2022-08-26T04:31:33.150Z,99788.49
2022-08-26T04:32:36.609Z,99782.25
2022-08-26T04:33:41.834Z,99785.79
2022-08-26T04:34:43.621Z,99788.49
2022-08-26T04:35:47.621Z,99786.66
2022-08-26T04:36:50.953Z,99786.66
2022-08-26T04:37:53.074Z,99791.19
2022-08-26T04:38:55.433Z,99788.49
2022-08-26T04:39:57.642Z,99787.66
2022-08-26T04:41:00.633Z,99790.36
2022-08-26T04:42:03.347Z,99788.49
2022-08-26T04:43:05.945Z,99790.20
2022-08-26T04:44:09.505Z,99795.45
2022-08-26T04:45:12.228Z,99790.78
2022-08-26T04:46:17.960Z,99788.08
2022-08-26T04:47:21.429Z,99788.77
2022-08-26T04:48:44.134Z,99793.17
2022-08-26T04:49:56.646Z,99790.48
2022-08-26T04:51:00.363Z,99796.72
2022-08-26T04:52:04.873Z,99793.03
2022-08-26T04:53:07.653Z,99790.33
2022-08-26T04:54:10.592Z,99792.03
2022-08-26T04:55:13.819Z,99793.03
2022-08-26T04:56:17.647Z,99791.16
2022-08-26T04:57:19.830Z,99792.16
2022-08-26T04:58:22.793Z,99783.20
2022-08-26T04:59:26.006Z,99793.17
2022-08-26T05:00:28.411Z,99789.91
2022-08-26T05:01:30.599Z,99786.52
2022-08-26T05:02:33.037Z,99786.52
2022-08-26T05:03:35.903Z,99787.35
2022-08-26T05:04:39.078Z,99786.36
2022-08-26T05:05:41.563Z,99788.91
2022-08-26T05:06:43.962Z,99788.77
2022-08-26T05:07:46.573Z,99786.06
2022-08-26T05:08:48.894Z,99782.37
2022-08-26T05:09:51.040Z,99791.31
2022-08-26T05:10:54.439Z,99795.73
2022-08-26T05:11:58.046Z,99790.33
2022-08-26T05:13:01.851Z,99788.31
2022-08-26T05:14:05.561Z,99789.03
2022-08-26T05:15:08.896Z,99791.43
2022-08-26T05:16:13.287Z,99785.88
2022-08-26T05:17:16.065Z,99779.48
2022-08-26T05:18:20.187Z,99788.42
2022-08-26T05:19:23.112Z,99782.87
2022-08-26T05:20:27.175Z,99789.15
2022-08-26T05:21:29.409Z,99789.98
2022-08-26T05:22:33.607Z,99784.58
2022-08-26T05:23:36.663Z,99789.98
2022-08-26T05:24:39.410Z,99786.45
2022-08-26T05:25:44.116Z,99784.58
2022-08-26T05:26:47.132Z,99786.14
2022-08-26T05:27:50.303Z,99784.43
2022-08-26T05:28:54.742Z,99788.84
2022-08-26T05:29:57.921Z,99792.39
2022-08-26T05:31:00.500Z,99790.70
2022-08-26T05:32:03.980Z,99788.00
2022-08-26T05:33:08.542Z,99788.00
2022-08-26T05:34:11.108Z,99788.00
2022-08-26T05:35:13.796Z,99788.69
2022-08-26T05:36:20.961Z,99791.24
2022-08-26T05:37:25.333Z,99786.83
2022-08-26T05:38:30.500Z,99782.14
2022-08-26T05:39:32.813Z,99782.98
2022-08-26T05:40:37.783Z,99785.69
2022-08-26T05:41:40.959Z,99792.12
2022-08-26T05:42:46.218Z,99792.12
2022-08-26T05:43:49.236Z,99792.95
2022-08-26T05:44:55.660Z,99795.66
2022-08-26T05:46:00.683Z,99795.81
2022-08-26T05:47:05.796Z,99798.52
2022-08-26T05:48:08.511Z,99794.09
2022-08-26T05:49:13.722Z,99796.80
2022-08-26T05:50:19.008Z,99794.09
2022-08-26T05:51:25.399Z,99797.64
2022-08-26T05:52:26.764Z,99801.22
2022-08-26T05:53:28.961Z,99797.64
2022-08-26T05:54:31.456Z,99797.80
2022-08-26T05:55:33.985Z,99795.96
2022-08-26T05:56:37.223Z,99805.75
2022-08-26T05:57:40.553Z,99796.65
2022-08-26T05:58:43.854Z,99798.36
2022-08-26T05:59:48.749Z,99799.20
2022-08-26T06:02:12.479Z,99802.73
2022-08-26T06:03:17.064Z,99803.77
2022-08-26T06:04:20.442Z,99802.92
2022-08-26T06:05:22.967Z,99797.52
2022-08-26T06:06:29.186Z,99803.77
2022-08-26T06:07:33.196Z,99802.92
2022-08-26T06:08:36.786Z,99805.48
2022-08-26T06:09:39.319Z,99795.66
2022-08-26T06:12:03.119Z,99805.28
2022-08-26T06:13:09.123Z,99810.88
2022-08-26T06:14:11.018Z,99813.73
2022-08-26T06:15:13.698Z,99813.73
2022-08-26T06:16:19.245Z,99811.88
2022-08-26T06:17:21.624Z,99804.61
2022-08-26T06:18:28.901Z,99799.05
2022-08-26T06:19:34.464Z,99811.73
2022-08-26T06:20:37.477Z,99803.46
2022-08-26T06:21:40.777Z,99806.89
2022-08-26T06:22:43.171Z,99802.32
2022-08-26T06:23:46.014Z,99800.30
2022-08-26T06:24:49.156Z,99805.71
2022-08-26T06:25:53.357Z,99798.62
2022-08-26T06:26:57.382Z,99811.27
2022-08-26T06:28:00.783Z,99805.02
2022-08-26T06:29:05.693Z,99798.93
2022-08-26T06:30:09.631Z,99797.06
2022-08-26T06:31:12.782Z,99800.61
2022-08-26T06:32:34.943Z,99791.66
2022-08-26T06:33:37.777Z,99790.81
2022-08-26T06:34:42.328Z,99796.22
2022-08-26T06:35:45.415Z,99785.26
2022-08-26T06:36:47.858Z,99796.07
2022-08-26T06:37:50.394Z,99791.51
2022-08-26T06:38:54.191Z,99794.05
2022-08-26T06:39:57.037Z,99789.48
2022-08-26T06:41:00.704Z,99795.77
2022-08-26T06:42:06.282Z,99796.61
2022-08-26T06:43:09.703Z,99795.77
2022-08-26T06:44:13.225Z,99793.91
2022-08-26T06:45:15.731Z,99796.61
2022-08-26T06:46:20.709Z,99795.77
2022-08-26T06:47:24.004Z,99796.61
2022-08-26T06:48:27.637Z,99795.77
2022-08-26T06:49:30.421Z,99791.20
2022-08-26T06:50:34.507Z,99793.91
2022-08-26T06:51:39.051Z,99790.36
2022-08-26T06:52:41.531Z,99794.90
2022-08-26T06:53:44.296Z,99795.77
2022-08-26T06:54:46.983Z,99785.11
2022-08-26T06:55:51.863Z,99796.77
2022-08-26T06:56:53.513Z,99797.75
2022-08-26T06:57:56.990Z,99789.64
2022-08-26T06:58:59.633Z,99786.09
2022-08-26T07:00:06.895Z,99791.51
2022-08-26T07:01:18.368Z,99795.05
2022-08-26T07:02:22.832Z,99787.97
2022-08-26T07:03:25.741Z,99788.65
2022-08-26T07:04:28.224Z,99782.41
2022-08-26T07:05:31.235Z,99788.65
2022-08-26T07:06:36.936Z,99790.36
2022-08-26T07:07:41.262Z,99800.30
2022-08-26T07:08:49.200Z,99808.30
2022-08-26T07:09:52.801Z,99805.59
2022-08-26T07:10:56.411Z,99806.28
2022-08-26T07:12:00.976Z,99792.61
2022-08-26T07:13:03.314Z,99798.02
2022-08-26T07:14:10.927Z,99796.19
2022-08-26T07:15:13.218Z,99796.19
2022-08-26T07:16:17.480Z,99795.31
2022-08-26T07:17:25.005Z,99797.33
2022-08-26T07:18:28.124Z,99802.89
2022-08-26T07:19:31.737Z,99795.77
2022-08-26T07:20:38.239Z,99804.72
2022-08-26T07:21:40.547Z,99789.38
2022-08-26T07:22:43.847Z,99794.63
2022-08-26T07:23:46.740Z,99797.17
2022-08-26T07:24:49.469Z,99795.31
2022-08-26T07:25:53.150Z,99794.31
2022-08-26T07:27:03.520Z,99794.31
2022-08-26T07:28:07.824Z,99785.25
2022-08-26T07:29:10.332Z,99786.09
2022-08-26T07:30:14.871Z,99782.55
2022-08-26T07:31:17.925Z,99782.39
2022-08-26T07:32:20.795Z,99778.69
2022-08-26T07:33:25.111Z,99787.64
2022-08-26T07:34:28.087Z,99778.54
2022-08-26T07:35:31.510Z,99783.95
2022-08-26T07:36:35.340Z,99789.20
2022-08-26T07:37:39.361Z,99788.17
2022-08-26T07:38:42.018Z,99781.93
2022-08-26T07:39:44.418Z,99787.34
2022-08-26T07:40:46.634Z,99781.09
2022-08-26T07:41:50.337Z,99785.47
2022-08-26T07:42:52.658Z,99775.53
2022-08-26T07:43:55.831Z,99782.64
2022-08-26T07:45:18.011Z,99788.05
2022-08-26T07:46:29.970Z,99785.35
2022-08-26T07:47:27.416Z,99778.08
2022-08-26T07:48:29.797Z,99770.95
2022-08-26T07:49:41.784Z,99780.94
2022-08-26T07:50:49.182Z,99776.52
2022-08-26T07:51:50.588Z,99767.41
2022-08-26T07:52:53.370Z,99776.37
2022-08-26T07:53:56.544Z,99768.41
2022-08-26T07:55:00.671Z,99772.98
2022-08-26T07:56:04.628Z,99763.16
2022-08-26T07:57:09.253Z,99763.16
2022-08-26T07:58:11.934Z,99767.73
2022-08-26T07:59:15.903Z,99768.56
2022-08-26T08:00:35.473Z,99762.16
2022-08-26T08:01:39.294Z,99760.30
2022-08-26T08:02:47.749Z,99762.01
2022-08-26T08:03:52.964Z,99764.72
2022-08-26T08:04:56.299Z,99753.90
2022-08-26T08:06:00.788Z,99757.59
2022-08-26T08:07:03.154Z,99754.89
2022-08-26T08:08:26.747Z,99761.14
2022-08-26T08:09:14.252Z,99758.44
2022-08-26T08:10:25.218Z,99755.61
2022-08-26T08:11:27.766Z,99754.58
2022-08-26T08:12:31.575Z,99759.15
2022-08-26T08:13:34.028Z,99750.20
2022-08-26T08:14:36.631Z,99756.60
2022-08-26T08:15:39.516Z,99753.74
2022-08-26T08:16:46.741Z,99749.17
2022-08-26T08:17:46.956Z,99751.04
2022-08-26T08:18:52.521Z,99753.59
2022-08-26T08:19:55.145Z,99752.59
2022-08-26T08:21:10.883Z,99752.44
2022-08-26T08:22:02.826Z,99745.16
2022-08-26T08:23:07.415Z,99746.03
2022-08-26T08:24:11.100Z,99737.92
2022-08-26T08:25:14.606Z,99748.59
2022-08-26T08:26:18.468Z,99741.31
2022-08-26T08:27:23.897Z,99736.06
2022-08-26T08:28:26.788Z,99727.11
2022-08-26T08:29:30.374Z,99742.46
2022-08-26T08:30:33.012Z,99744.17
2022-08-26T08:31:56.887Z,99736.89
2022-08-26T08:32:42.451Z,99739.60
2022-08-26T08:33:44.879Z,99736.06
2022-08-26T08:34:48.235Z,99730.49
2022-08-26T08:35:51.814Z,99728.78
2022-08-26T08:36:57.841Z,99734.04
2022-08-26T08:38:00.368Z,99726.80
2022-08-26T08:39:04.866Z,99716.81
2022-08-26T08:40:11.205Z,99726.80
2022-08-26T08:42:49.243Z,99703.23
2022-08-26T08:43:53.006Z,99721.39
2022-08-26T08:44:57.224Z,99723.22
2022-08-26T08:46:02.610Z,99721.55
2022-08-26T08:47:13.390Z,99716.13
2022-08-26T08:49:34.625Z,99718.06
2022-08-26T08:52:04.183Z,99713.43
2022-08-26T08:53:18.696Z,99723.75
2022-08-26T08:54:22.171Z,99719.61
2022-08-26T08:55:27.331Z,99713.80
2022-08-26T08:56:38.357Z,99720.23
2022-08-26T08:59:18.898Z,99717.06
2022-08-26T09:00:30.243Z,99719.25
2022-08-26T09:01:46.707Z,99715.87
2022-08-26T09:03:10.283Z,99724.97
2022-08-26T09:06:02.557Z,99714.56
2022-08-26T09:07:09.506Z,99710.36
2022-08-26T09:09:40.489Z,99709.63
2022-08-26T09:10:45.812Z,99708.95
2022-08-26T09:11:48.679Z,99706.41
2022-08-26T09:12:51.989Z,99700.16
2022-08-26T09:13:54.627Z,99706.41
2022-08-26T09:16:35.138Z,99696.23
2022-08-26T09:19:21.060Z,99706.92
2022-08-26T09:20:45.359Z,99718.77
2022-08-26T09:23:10.451Z,99712.33
2022-08-26T09:24:13.956Z,99712.49
2022-08-26T09:25:16.852Z,99704.39
2022-08-26T09:26:28.730Z,99714.20
2022-08-26T09:27:44.454Z,99706.09
2022-08-26T09:29:02.339Z,99707.96
2022-08-26T09:30:06.732Z,99709.52
2022-08-26T09:31:21.486Z,99712.22
2022-08-26T09:32:25.719Z,99704.11
2022-08-26T09:33:29.874Z,99711.20
2022-08-26T09:34:32.757Z,99709.36
2022-08-26T09:35:40.388Z,99703.95
2022-08-26T09:36:45.207Z,99706.66
2022-08-26T09:38:50.282Z,99694.86
2022-08-26T09:39:52.616Z,99701.10
2022-08-26T09:42:14.314Z,99705.31
2022-08-26T09:43:21.988Z,99705.36
2022-08-26T09:44:23.044Z,99700.80
2022-08-26T09:45:28.710Z,99702.51
2022-08-26T09:46:34.253Z,99707.91
2022-08-26T09:47:49.021Z,99709.63
2022-08-26T09:48:53.024Z,99693.41
2022-08-26T09:51:23.743Z,99702.98
2022-08-26T09:52:25.939Z,99698.66
2022-08-26T09:54:43.063Z,99693.04
2022-08-26T09:55:50.030Z,99698.66
2022-08-26T09:56:52.557Z,99697.78
2022-08-26T09:57:55.008Z,99696.80
2022-08-26T09:59:00.816Z,99693.94
2022-08-26T10:01:33.797Z,99698.14
2022-08-26T10:02:37.735Z,99697.36
2022-08-26T10:03:41.028Z,99689.09
2022-08-26T10:04:55.295Z,99704.44
2022-08-26T10:07:12.598Z,99695.00
2022-08-26T10:08:25.604Z,99696.05
2022-08-26T10:09:29.903Z,99690.34
2022-08-26T10:10:38.036Z,99693.57
2022-08-26T10:11:51.362Z,99705.09
2022-08-26T10:13:12.512Z,99698.58
2022-08-26T10:15:31.735Z,99700.59
2022-08-26T10:16:41.085Z,99697.80
2022-08-26T10:17:53.605Z,99694.09
2022-08-26T10:19:05.712Z,99697.52
2022-08-26T10:20:23.346Z,99695.65
2022-08-26T10:21:22.632Z,99698.05
2022-08-26T10:23:59.206Z,99697.38
2022-08-26T10:25:04.408Z,99694.75
2022-08-26T10:26:17.426Z,99685.76
2022-08-26T10:27:48.401Z,99688.31
2022-08-26T10:28:50.454Z,99689.18
2022-08-26T10:29:56.542Z,99691.73
2022-08-26T10:31:06.471Z,99692.56
2022-08-26T10:32:13.792Z,99694.43
2022-08-26T10:33:17.936Z,99687.16
2022-08-26T10:34:21.082Z,99689.86
2022-08-26T10:35:23.648Z,99701.39
2022-08-26T10:36:30.077Z,99697.81
2022-08-26T10:37:36.328Z,99694.95
2022-08-26T10:38:38.722Z,99696.66
2022-08-26T10:39:59.414Z,99698.38
2022-08-26T10:41:16.944Z,99699.21
2022-08-26T10:42:39.550Z,99698.22
2022-08-26T10:43:46.360Z,99699.05
2022-08-26T10:44:52.156Z,99696.19
2022-08-26T10:47:16.007Z,99701.53
2022-08-26T10:48:35.842Z,99690.78
2022-08-26T10:49:32.757Z,99708.88
2022-08-26T10:50:39.751Z,99696.19
2022-08-26T10:52:16.594Z,99702.47
2022-08-26T10:53:38.514Z,99706.02
2022-08-26T10:54:45.441Z,99699.61
2022-08-26T10:55:57.753Z,99695.91
2022-08-26T10:57:10.636Z,99693.36
2022-08-26T10:58:26.662Z,99692.48
2022-08-26T10:59:44.895Z,99691.66
2022-08-26T11:00:52.343Z,99696.06
2022-08-26T11:01:58.566Z,99696.06
2022-08-26T11:03:21.908Z,99699.77
2022-08-26T11:04:47.145Z,99691.66
2022-08-26T11:06:07.261Z,99693.36
2022-08-26T11:07:34.145Z,99686.08
2022-08-26T11:08:38.972Z,99684.38
2022-08-26T11:09:43.692Z,99701.48
2022-08-26T11:10:58.917Z,99696.19
2022-08-26T11:12:06.426Z,99690.78
2022-08-26T11:13:06.193Z,99700.61
2022-08-26T11:14:29.332Z,99695.36
2022-08-26T11:15:32.869Z,99698.06
2022-08-26T11:16:43.468Z,99692.48
2022-08-26T11:17:49.338Z,99694.36
2022-08-26T11:18:51.627Z,99693.36
2022-08-26T11:20:01.500Z,99698.77
2022-08-26T11:21:01.798Z,99696.91
2022-08-26T11:22:09.035Z,99696.06
2022-08-26T11:23:27.127Z,99696.91
2022-08-26T11:24:44.230Z,99701.31
2022-08-26T11:25:59.697Z,99698.61
2022-08-26T11:27:03.223Z,99694.04
2022-08-26T11:28:06.189Z,99686.77
2022-08-26T11:29:13.201Z,99695.91
2022-08-26T11:30:18.468Z,99691.34
2022-08-26T11:31:29.290Z,99689.47
2022-08-26T11:32:41.244Z,99698.45
2022-08-26T11:33:49.533Z,99685.92
2022-08-26T11:36:12.500Z,99679.44
2022-08-26T11:37:25.921Z,99675.94
2022-08-26T11:38:30.223Z,99676.97
2022-08-26T11:39:55.338Z,99679.67
2022-08-26T11:41:11.895Z,99685.09
2022-08-26T11:42:34.983Z,99688.78
2022-08-26T11:43:38.607Z,99685.09
2022-08-26T11:45:05.419Z,99685.92
2022-08-26T11:47:29.451Z,99691.09
2022-08-26T11:48:34.797Z,99688.47
2022-08-26T11:49:38.298Z,99681.35
2022-08-26T11:50:40.612Z,99692.89
2022-08-26T11:51:48.140Z,99683.94
2022-08-26T11:54:11.270Z,99687.08
2022-08-26T11:55:13.845Z,99689.03
2022-08-26T11:56:31.751Z,99688.00
2022-08-26T11:57:35.377Z,99691.58
2022-08-26T12:00:31.408Z,99687.63
2022-08-26T12:02:47.874Z,99687.63
2022-08-26T12:05:13.387Z,99689.55
2022-08-26T12:06:29.258Z,99693.97
2022-08-26T12:07:31.454Z,99696.67
2022-08-26T12:08:36.996Z,99697.51
2022-08-26T12:09:51.521Z,99692.09
2022-08-26T12:11:04.918Z,99698.38
2022-08-26T12:13:29.918Z,99682.90
2022-08-26T12:14:33.709Z,99682.14
2022-08-26T12:15:36.419Z,99684.84
2022-08-26T12:16:40.998Z,99692.09
2022-08-26T12:17:44.408Z,99691.97
2022-08-26T12:18:47.457Z,99691.26
2022-08-26T12:19:51.440Z,99693.97
2022-08-26T12:20:54.071Z,99688.71
2022-08-26T12:23:42.202Z,99687.23
2022-08-26T12:26:30.152Z,99677.05
2022-08-26T12:27:34.760Z,99680.13
2022-08-26T12:28:49.022Z,99686.69
2022-08-26T12:30:21.868Z,99684.30
2022-08-26T12:31:33.618Z,99681.91
2022-08-26T12:32:37.066Z,99681.22
2022-08-26T12:33:41.136Z,99675.10
2022-08-26T12:34:45.341Z,99677.96
2022-08-26T12:35:51.423Z,99672.71
2022-08-26T12:36:55.448Z,99679.11
2022-08-26T12:37:58.166Z,99684.52
2022-08-26T12:40:40.148Z,99674.63
2022-08-26T12:41:46.308Z,99678.43
2022-08-26T12:42:48.668Z,99666.74
2022-08-26T12:43:51.031Z,99678.59
2022-08-26T12:45:04.555Z,99674.86
2022-08-26T12:46:09.800Z,99675.02
2022-08-26T12:48:37.033Z,99675.81
2022-08-26T12:49:39.708Z,99667.06
2022-08-26T12:50:49.316Z,99678.71
2022-08-26T12:51:52.006Z,99672.47
2022-08-26T12:54:14.747Z,99669.53
2022-08-26T12:55:29.160Z,99680.42
2022-08-26T12:56:38.012Z,99675.02
2022-08-26T12:57:41.404Z,99678.59
2022-08-26T12:58:46.244Z,99665.06
2022-08-26T12:59:49.930Z,99669.45
2022-08-26T13:01:08.806Z,99667.61
2022-08-26T13:02:14.584Z,99665.75
2022-08-26T13:03:34.477Z,99667.61
2022-08-26T13:04:40.936Z,99670.16
2022-08-26T13:07:21.394Z,99660.98
2022-08-26T13:08:28.269Z,99660.34
2022-08-26T13:09:30.833Z,99661.18
2022-08-26T13:11:51.524Z,99652.70
2022-08-26T13:12:54.817Z,99662.73
2022-08-26T13:14:06.992Z,99664.44
2022-08-26T13:15:08.246Z,99663.44
2022-08-26T13:16:11.677Z,99657.01
2022-08-26T13:17:14.706Z,99661.42
2022-08-26T13:18:17.097Z,99657.72
2022-08-26T13:19:21.692Z,99658.56
2022-08-26T13:20:25.701Z,99662.97
2022-08-26T13:21:37.438Z,99659.27
2022-08-26T13:22:37.812Z,99652.99
2022-08-26T13:23:42.625Z,99660.11
2022-08-26T13:24:45.790Z,99657.41
2022-08-26T13:25:48.964Z,99666.52
2022-08-26T13:26:51.502Z,99657.56
2022-08-26T13:27:53.807Z,99647.58
2022-08-26T13:29:01.456Z,99654.86
2022-08-26T13:30:00.288Z,99658.56
2022-08-26T13:31:03.989Z,99653.15
2022-08-26T13:32:08.204Z,99665.83
2022-08-26T13:33:12.262Z,99665.83
2022-08-26T13:34:17.903Z,99664.13
2022-08-26T13:35:21.487Z,99661.42
2022-08-26T13:36:25.898Z,99665.98
2022-08-26T13:37:34.443Z,99664.28
2022-08-26T13:38:34.092Z,99661.58
2022-08-26T13:39:37.009Z,99663.28
2022-08-26T13:41:53.053Z,99663.20
2022-08-26T13:42:55.328Z,99659.87
2022-08-26T13:43:58.880Z,99658.72
2022-08-26T13:45:02.738Z,99663.97
2022-08-26T13:46:06.509Z,99668.38
2022-08-26T13:47:09.903Z,99658.40
2022-08-26T13:48:12.459Z,99665.36
2022-08-26T13:49:15.026Z,99664.36
2022-08-26T13:50:19.129Z,99669.61